createdAt,value
2017-12-01T00:01:11.382Z,55.25
2017-12-01T00:03:40.069Z,55.22
2017-12-01T00:06:09.357Z,55.15
2017-12-01T00:08:36.780Z,55.18
2017-12-01T00:11:03.633Z,55.23
2017-12-01T00:13:29.867Z,55.22
2017-12-01T00:15:56.081Z,55.15
2017-12-01T00:18:23.622Z,55.11
2017-12-01T00:20:49.882Z,55.27
2017-12-01T00:23:16.139Z,55.28
2017-12-01T00:25:42.482Z,55.23
2017-12-01T00:28:09.849Z,55.14
2017-12-01T00:30:36.204Z,55.66
2017-12-01T00:33:02.832Z,55.94
2017-12-01T00:35:29.103Z,56.01
2017-12-01T00:37:55.464Z,55.96
2017-12-01T00:40:21.708Z,56.07
2017-12-01T00:42:47.977Z,56.13
2017-12-01T00:45:16.210Z,56.02
2017-12-01T00:47:42.577Z,55.93
2017-12-01T00:50:10.255Z,55.76
2017-12-01T00:52:37.636Z,55.46
2017-12-01T00:55:05.184Z,55.43
2017-12-01T00:57:33.403Z,55.41
2017-12-01T00:59:59.927Z,55.42
2017-12-01T01:02:27.116Z,55.77
2017-12-01T01:04:55.273Z,55.67
2017-12-01T01:07:21.574Z,55.53
2017-12-01T01:09:47.860Z,55.59
2017-12-01T01:12:14.098Z,55.92
2017-12-01T01:14:40.314Z,55.91
2017-12-01T01:17:06.728Z,56.12
2017-12-01T01:19:32.943Z,56.12
2017-12-01T01:21:59.136Z,55.95
2017-12-01T01:24:25.384Z,55.87
2017-12-01T01:26:51.573Z,55.71
2017-12-01T01:29:17.731Z,55.70
2017-12-01T01:31:44.043Z,55.61
2017-12-01T01:34:10.211Z,55.68
2017-12-01T01:36:36.405Z,55.68
2017-12-01T01:39:02.866Z,55.69
2017-12-01T01:41:29.314Z,55.70
2017-12-01T01:43:55.535Z,55.73
2017-12-01T01:46:21.945Z,55.79
2017-12-01T01:48:48.176Z,55.92
2017-12-01T01:51:14.361Z,56.08
2017-12-01T01:53:40.618Z,56.09
2017-12-01T01:56:06.961Z,56.08
2017-12-01T01:58:33.179Z,56.10
2017-12-01T02:00:59.794Z,56.24
2017-12-01T02:03:25.972Z,56.28
2017-12-01T02:05:52.401Z,56.15
2017-12-01T02:08:18.902Z,56.05
2017-12-01T02:10:51.108Z,56.11
2017-12-01T02:13:17.345Z,56.03
2017-12-01T02:15:43.536Z,55.91
2017-12-01T02:18:09.748Z,55.99
2017-12-01T02:20:36.145Z,55.98
2017-12-01T02:23:02.392Z,56.09
2017-12-01T02:25:28.634Z,56.04
2017-12-01T02:27:55.145Z,55.97
2017-12-01T02:30:21.346Z,56.04
2017-12-01T02:32:47.554Z,56.06
2017-12-01T02:35:13.819Z,56.11
2017-12-01T02:37:40.067Z,56.15
2017-12-01T02:40:06.264Z,56.07
2017-12-01T02:42:32.542Z,55.91
2017-12-01T02:44:58.846Z,55.86
2017-12-01T02:47:25.048Z,55.89
2017-12-01T02:49:51.317Z,55.92
2017-12-01T02:52:17.656Z,55.83
2017-12-01T02:54:49.010Z,56.07
2017-12-01T02:57:15.203Z,56.05
2017-12-01T02:59:41.571Z,56.01
2017-12-01T03:02:08.068Z,55.88
2017-12-01T03:04:34.288Z,55.85
2017-12-01T03:07:00.661Z,55.73
2017-12-01T03:09:27.096Z,55.81
2017-12-01T03:11:53.309Z,55.77
2017-12-01T03:14:22.301Z,55.93
2017-12-01T03:16:48.564Z,56.33
2017-12-01T03:19:14.782Z,56.48
2017-12-01T03:21:41.112Z,56.71
2017-12-01T03:24:07.401Z,56.59
2017-12-01T03:26:33.695Z,56.43
2017-12-01T03:28:59.974Z,56.51
2017-12-01T03:31:26.187Z,56.60
2017-12-01T03:33:52.413Z,56.59
2017-12-01T03:36:18.757Z,56.62
2017-12-01T03:38:45.222Z,56.64
2017-12-01T03:41:11.417Z,56.73
2017-12-01T03:43:37.681Z,56.66
2017-12-01T03:46:03.994Z,56.76
2017-12-01T03:48:30.431Z,56.69
2017-12-01T03:50:56.683Z,56.75
2017-12-01T03:53:22.905Z,56.65
2017-12-01T03:55:49.119Z,56.68
2017-12-01T03:58:15.364Z,56.83
2017-12-01T04:00:41.559Z,56.72
2017-12-01T04:03:07.813Z,56.76
2017-12-01T04:05:34.077Z,56.90
2017-12-01T04:08:00.302Z,56.74
2017-12-01T04:10:26.496Z,56.58
2017-12-01T04:12:52.862Z,56.60
2017-12-01T04:15:19.065Z,56.51
2017-12-01T04:17:45.267Z,56.46
2017-12-01T04:20:11.768Z,56.47
2017-12-01T04:22:37.991Z,56.46
2017-12-01T04:25:04.201Z,56.45
2017-12-01T04:27:30.526Z,56.38
2017-12-01T04:29:56.737Z,56.72
2017-12-01T04:32:22.945Z,56.65
2017-12-01T04:34:49.195Z,56.59
2017-12-01T04:37:15.391Z,56.57
2017-12-01T04:39:41.591Z,56.55
2017-12-01T04:42:07.840Z,56.58
2017-12-01T04:44:34.301Z,56.66
2017-12-01T04:47:00.520Z,56.60
2017-12-01T04:49:26.795Z,56.59
2017-12-01T04:51:53.244Z,56.59
2017-12-01T04:54:19.439Z,56.58
2017-12-01T04:56:45.945Z,56.62
2017-12-01T04:59:12.165Z,56.52
2017-12-01T05:01:38.610Z,56.38
2017-12-01T05:04:10.796Z,56.54
2017-12-01T05:06:37.244Z,56.44
2017-12-01T05:11:35.551Z,56.45
2017-12-01T05:14:01.752Z,56.42
2017-12-01T05:16:27.942Z,56.19
2017-12-01T05:18:54.269Z,56.04
2017-12-01T05:21:20.496Z,55.99
2017-12-01T05:23:46.704Z,56.46
2017-12-01T05:26:13.065Z,55.92
2017-12-01T05:28:39.264Z,55.74
2017-12-01T05:31:05.491Z,55.66
2017-12-01T05:33:31.855Z,55.69
2017-12-01T05:35:58.052Z,55.67
2017-12-01T05:38:24.504Z,55.67
2017-12-01T05:40:50.771Z,55.70
2017-12-01T05:43:16.980Z,55.62
2017-12-01T05:45:43.219Z,56.03
2017-12-01T05:48:09.461Z,56.20
2017-12-01T05:50:35.908Z,56.25
2017-12-01T05:53:02.126Z,56.33
2017-12-01T05:55:28.481Z,56.28
2017-12-01T05:57:54.946Z,56.26
2017-12-01T06:00:21.190Z,56.33
2017-12-01T06:02:47.966Z,56.25
2017-12-01T06:05:17.324Z,55.86
2017-12-01T06:07:45.254Z,55.70
2017-12-01T06:10:13.759Z,55.61
2017-12-01T06:12:40.102Z,55.59
2017-12-01T06:15:06.540Z,55.59
2017-12-01T06:17:32.898Z,55.55
2017-12-01T06:19:59.105Z,55.47
2017-12-01T06:22:25.334Z,55.64
2017-12-01T06:24:51.689Z,55.82
2017-12-01T06:27:17.912Z,55.72
2017-12-01T06:29:44.104Z,55.67
2017-12-01T06:32:10.514Z,55.65
2017-12-01T06:34:36.735Z,55.64
2017-12-01T06:37:03.091Z,55.68
2017-12-01T06:39:29.423Z,55.72
2017-12-01T06:41:55.940Z,55.75
2017-12-01T06:44:22.184Z,55.70
2017-12-01T06:46:48.651Z,55.66
2017-12-01T06:49:15.079Z,55.67
2017-12-01T06:51:41.300Z,55.54
2017-12-01T06:54:07.582Z,55.84
2017-12-01T06:56:33.889Z,56.03
2017-12-01T06:59:00.380Z,56.20
2017-12-01T07:03:59.573Z,55.85
2017-12-01T07:06:26.054Z,55.75
2017-12-01T07:08:52.248Z,55.61
2017-12-01T07:11:18.423Z,55.48
2017-12-01T07:13:44.672Z,55.56
2017-12-01T07:16:10.865Z,55.58
2017-12-01T07:18:37.301Z,55.58
2017-12-01T07:21:03.634Z,55.66
2017-12-01T07:23:29.843Z,55.83
2017-12-01T07:25:56.108Z,55.81
2017-12-01T07:28:22.666Z,55.97
2017-12-01T07:30:48.873Z,56.18
2017-12-01T07:33:15.105Z,56.01
2017-12-01T07:35:41.438Z,55.81
2017-12-01T07:38:07.675Z,55.65
2017-12-01T07:40:34.254Z,55.56
2017-12-01T07:43:00.527Z,55.55
2017-12-01T07:45:28.680Z,55.42
2017-12-01T07:47:54.924Z,55.40
2017-12-01T07:50:21.532Z,55.38
2017-12-01T07:52:47.890Z,55.26
2017-12-01T07:55:14.198Z,55.29
2017-12-01T07:57:40.496Z,55.25
2017-12-01T08:00:06.733Z,55.17
2017-12-01T08:02:33.081Z,55.18
2017-12-01T08:04:59.440Z,55.18
2017-12-01T08:07:25.904Z,55.09
2017-12-01T08:09:52.137Z,55.03
2017-12-01T08:12:18.426Z,54.98
2017-12-01T08:14:44.753Z,55.00
2017-12-01T08:17:23.471Z,55.00
2017-12-01T08:19:49.712Z,54.92
2017-12-01T08:22:28.504Z,54.99
2017-12-01T08:25:07.376Z,54.89
2017-12-01T08:27:33.639Z,54.79
2017-12-01T08:29:59.916Z,54.76
2017-12-01T08:32:26.397Z,54.71
2017-12-01T08:34:52.951Z,54.63
2017-12-01T08:37:19.167Z,54.62
2017-12-01T08:39:45.447Z,54.58
2017-12-01T08:42:11.954Z,54.54
2017-12-01T08:44:38.141Z,54.47
2017-12-01T08:47:04.386Z,54.41
2017-12-01T08:49:30.725Z,54.41
2017-12-01T08:51:57.168Z,54.39
2017-12-01T08:54:23.380Z,54.35
2017-12-01T08:56:49.607Z,54.32
2017-12-01T08:59:15.837Z,54.29
2017-12-01T09:01:42.086Z,54.31
2017-12-01T09:04:08.319Z,54.39
2017-12-01T09:06:34.516Z,54.27
2017-12-01T09:09:00.967Z,54.11
2017-12-01T09:11:27.216Z,53.97
2017-12-01T09:13:53.452Z,53.98
2017-12-01T09:16:19.892Z,54.00
2017-12-01T09:18:46.143Z,53.92
2017-12-01T09:21:12.551Z,53.98
2017-12-01T09:23:39.150Z,54.05
2017-12-01T09:26:05.647Z,54.01
2017-12-01T09:28:32.118Z,53.85
2017-12-01T09:30:58.300Z,53.85
2017-12-01T09:33:24.579Z,53.83
2017-12-01T09:35:50.752Z,53.80
2017-12-01T09:38:16.932Z,53.89
2017-12-01T09:40:43.421Z,53.87
2017-12-01T09:43:09.641Z,53.82
2017-12-01T09:45:36.184Z,53.79
2017-12-01T09:48:02.432Z,53.67
2017-12-01T09:50:28.613Z,53.60
2017-12-01T09:52:54.872Z,53.55
2017-12-01T09:55:22.560Z,53.56
2017-12-01T09:57:48.855Z,53.57
2017-12-01T10:00:15.066Z,53.49
2017-12-01T10:02:41.321Z,53.49
2017-12-01T10:05:07.509Z,53.49
2017-12-01T10:07:33.945Z,53.46
2017-12-01T10:10:00.261Z,53.41
2017-12-01T10:12:26.449Z,53.40
2017-12-01T10:14:53.436Z,53.40
2017-12-01T10:17:19.784Z,53.36
2017-12-01T10:19:45.977Z,53.40
2017-12-01T10:22:12.205Z,53.38
2017-12-01T10:24:38.568Z,53.38
2017-12-01T10:27:04.764Z,53.34
2017-12-01T10:29:30.944Z,53.26
2017-12-01T10:31:57.183Z,53.22
2017-12-01T10:34:23.377Z,53.14
2017-12-01T10:36:49.556Z,53.02
2017-12-01T10:39:15.808Z,53.00
2017-12-01T10:41:42.000Z,52.96
2017-12-01T10:44:08.221Z,52.97
2017-12-01T10:46:34.504Z,52.83
2017-12-01T10:49:00.927Z,52.72
2017-12-01T10:51:27.116Z,52.65
2017-12-01T10:53:53.443Z,52.75
2017-12-01T10:56:19.647Z,52.83
2017-12-01T10:58:45.840Z,52.80
2017-12-01T11:01:12.166Z,52.83
2017-12-01T11:03:38.509Z,52.83
2017-12-01T11:06:04.688Z,52.88
2017-12-01T11:08:30.987Z,52.80
2017-12-01T11:10:57.167Z,52.76
2017-12-01T11:13:23.336Z,52.73
2017-12-01T11:15:49.950Z,52.74
2017-12-01T11:18:16.254Z,52.67
2017-12-01T11:20:42.456Z,52.65
2017-12-01T11:23:08.743Z,52.64
2017-12-01T11:25:35.093Z,52.56
2017-12-01T11:28:01.292Z,52.55
2017-12-01T11:30:27.556Z,52.48
2017-12-01T11:32:53.743Z,52.35
2017-12-01T11:35:20.188Z,52.30
2017-12-01T11:37:46.503Z,52.36
2017-12-01T11:40:12.973Z,52.38
2017-12-01T11:42:39.126Z,52.48
2017-12-01T11:45:05.398Z,52.41
2017-12-01T11:47:31.669Z,52.38
2017-12-01T11:49:57.860Z,52.42
2017-12-01T11:52:24.108Z,52.19
2017-12-01T11:54:50.301Z,52.24
2017-12-01T11:57:16.504Z,52.32
2017-12-01T11:59:43.071Z,52.39
2017-12-01T12:02:09.247Z,52.38
2017-12-01T12:04:35.466Z,52.43
2017-12-01T12:07:01.782Z,52.40
2017-12-01T12:09:27.993Z,52.39
2017-12-01T12:11:54.426Z,52.35
2017-12-01T12:14:20.673Z,52.37
2017-12-01T12:16:47.106Z,52.40
2017-12-01T12:19:13.294Z,52.37
2017-12-01T12:21:39.614Z,52.46
2017-12-01T12:24:05.831Z,52.43
2017-12-01T12:26:32.058Z,52.39
2017-12-01T12:28:58.540Z,52.41
2017-12-01T12:31:24.783Z,52.52
2017-12-01T12:33:51.018Z,52.45
2017-12-01T12:36:17.339Z,52.50
2017-12-01T12:38:43.545Z,52.51
2017-12-01T12:41:10.078Z,52.61
2017-12-01T12:43:36.414Z,52.50
2017-12-01T12:46:02.823Z,52.48
2017-12-01T12:48:29.252Z,52.58
2017-12-01T12:50:55.834Z,52.54
2017-12-01T12:53:22.075Z,52.53
2017-12-01T12:55:48.256Z,52.46
2017-12-01T12:58:14.552Z,52.51
2017-12-01T13:00:40.911Z,52.58
2017-12-01T13:03:07.156Z,52.71
2017-12-01T13:05:33.495Z,52.73
2017-12-01T13:07:59.717Z,52.84
2017-12-01T13:10:25.955Z,53.05
2017-12-01T13:12:52.258Z,53.10
2017-12-01T13:15:18.524Z,52.83
2017-12-01T13:17:44.788Z,52.79
2017-12-01T13:20:11.171Z,52.75
2017-12-01T13:22:37.396Z,52.75
2017-12-01T13:25:03.616Z,52.69
2017-12-01T13:27:29.865Z,52.72
2017-12-01T13:29:56.064Z,52.95
2017-12-01T13:32:22.352Z,52.97
2017-12-01T13:34:48.723Z,53.11
2017-12-01T13:37:14.961Z,53.02
2017-12-01T13:39:41.150Z,53.05
2017-12-01T13:42:07.499Z,53.17
2017-12-01T13:44:33.681Z,53.17
2017-12-01T13:47:00.242Z,53.09
2017-12-01T13:49:32.661Z,53.10
2017-12-01T13:51:58.853Z,53.10
2017-12-01T13:54:25.036Z,53.13
2017-12-01T13:56:51.363Z,53.10
2017-12-01T13:59:17.577Z,53.04
2017-12-01T14:01:43.756Z,53.03
2017-12-01T14:04:10.014Z,53.04
2017-12-01T14:06:36.435Z,52.99
2017-12-01T14:09:02.728Z,52.97
2017-12-01T14:11:28.969Z,52.94
2017-12-01T14:13:55.220Z,52.93
2017-12-01T14:16:21.480Z,52.99
2017-12-01T14:18:47.736Z,52.93
2017-12-01T14:21:13.935Z,52.88
2017-12-01T14:23:40.134Z,52.80
2017-12-01T14:26:06.543Z,52.80
2017-12-01T14:28:32.725Z,52.70
2017-12-01T14:30:58.918Z,52.87
2017-12-01T14:33:25.182Z,52.82
2017-12-01T14:35:51.409Z,52.86
2017-12-01T14:38:17.596Z,52.87
2017-12-01T14:40:43.846Z,52.80
2017-12-01T14:43:10.101Z,52.77
2017-12-01T14:45:36.279Z,52.84
2017-12-01T14:48:02.772Z,52.84
2017-12-01T14:50:28.945Z,52.87
2017-12-01T14:52:55.135Z,52.83
2017-12-01T14:55:21.381Z,52.84
2017-12-01T14:57:47.873Z,52.81
2017-12-01T15:00:14.094Z,52.87
2017-12-01T15:02:40.442Z,52.85
2017-12-01T15:05:06.627Z,52.89
2017-12-01T15:07:32.832Z,52.87
2017-12-01T15:09:59.155Z,52.85
2017-12-01T15:12:25.341Z,52.91
2017-12-01T15:14:51.528Z,52.86
2017-12-01T15:17:18.007Z,52.78
2017-12-01T15:19:44.193Z,52.71
2017-12-01T15:22:11.308Z,52.74
2017-12-01T15:24:37.560Z,52.69
2017-12-01T15:27:03.753Z,52.65
2017-12-01T15:29:29.937Z,52.65
2017-12-01T15:31:56.404Z,52.68
2017-12-01T15:34:23.240Z,52.69
2017-12-01T15:36:49.413Z,52.66
2017-12-01T15:39:15.665Z,52.69
2017-12-01T15:41:41.923Z,52.76
2017-12-01T15:44:08.122Z,52.72
2017-12-01T15:46:34.450Z,52.73
2017-12-01T15:49:00.631Z,52.75
2017-12-01T15:51:26.821Z,52.77
2017-12-01T15:53:53.167Z,52.72
2017-12-01T15:56:19.391Z,52.66
2017-12-01T15:58:45.567Z,52.68
2017-12-01T16:01:11.813Z,52.66
2017-12-01T16:03:38.813Z,52.68
2017-12-01T16:06:05.049Z,52.62
2017-12-01T16:08:31.290Z,52.66
2017-12-01T16:10:57.635Z,52.64
2017-12-01T16:13:24.062Z,52.62
2017-12-01T16:15:50.515Z,52.59
2017-12-01T16:18:16.869Z,52.62
2017-12-01T16:20:43.088Z,52.62
2017-12-01T16:23:09.360Z,52.60
2017-12-01T16:25:35.617Z,52.68
2017-12-01T16:28:01.820Z,52.63
2017-12-01T16:30:28.056Z,52.68
2017-12-01T16:33:00.226Z,52.67
2017-12-01T16:35:20.560Z,52.63
2017-12-01T16:37:46.838Z,52.56
2017-12-01T16:40:13.393Z,52.51
2017-12-01T16:42:39.579Z,52.48
2017-12-01T16:45:05.764Z,52.46
2017-12-01T16:47:32.010Z,52.44
2017-12-01T16:49:58.208Z,52.45
2017-12-01T16:52:24.400Z,52.44
2017-12-01T16:54:50.961Z,52.47
2017-12-01T16:57:17.164Z,52.42
2017-12-01T16:59:43.361Z,52.38
2017-12-01T17:02:09.601Z,52.37
2017-12-01T17:04:35.952Z,52.38
2017-12-01T17:07:02.231Z,52.33
2017-12-01T17:09:28.459Z,52.38
2017-12-01T17:11:56.020Z,52.38
2017-12-01T17:14:22.223Z,52.39
2017-12-01T17:16:48.437Z,52.35
2017-12-01T17:19:14.774Z,52.40
2017-12-01T17:21:40.985Z,52.37
2017-12-01T17:24:07.165Z,52.43
2017-12-01T17:26:33.501Z,52.39
2017-12-01T17:28:59.951Z,52.38
2017-12-01T17:31:26.141Z,52.39
2017-12-01T17:33:52.642Z,52.36
2017-12-01T17:36:18.889Z,52.38
2017-12-01T17:38:45.091Z,52.36
2017-12-01T17:41:11.437Z,52.36
2017-12-01T17:43:37.635Z,52.37
2017-12-01T17:46:04.083Z,52.43
2017-12-01T17:48:30.356Z,52.43
2017-12-01T17:50:56.569Z,52.42
2017-12-01T17:53:22.770Z,52.41
2017-12-01T17:55:49.017Z,52.35
2017-12-01T17:58:15.301Z,52.39
2017-12-01T18:00:41.522Z,52.32
2017-12-01T18:03:07.776Z,52.30
2017-12-01T18:05:33.967Z,52.30
2017-12-01T18:08:00.164Z,52.38
2017-12-01T18:10:26.406Z,52.35
2017-12-01T18:12:52.606Z,52.33
2017-12-01T18:15:18.787Z,52.42
2017-12-01T18:17:45.101Z,52.42
2017-12-01T18:20:11.301Z,52.36
2017-12-01T18:22:37.709Z,52.30
2017-12-01T18:25:03.964Z,52.32
2017-12-01T18:27:30.161Z,52.31
2017-12-01T18:29:56.343Z,52.25
2017-12-01T18:32:22.590Z,52.19
2017-12-01T18:34:48.830Z,52.21
2017-12-01T18:37:15.200Z,52.19
2017-12-01T18:39:41.568Z,52.21
2017-12-01T18:42:07.845Z,52.25
2017-12-01T18:44:34.103Z,52.34
2017-12-01T18:47:00.473Z,52.31
2017-12-01T18:49:26.717Z,52.29
2017-12-01T18:51:52.956Z,52.27
2017-12-01T18:54:19.346Z,52.22
2017-12-01T18:56:45.823Z,52.31
2017-12-01T18:59:12.046Z,52.32
2017-12-01T19:01:38.432Z,52.25
2017-12-01T19:04:04.678Z,52.26
2017-12-01T19:06:31.017Z,52.30
2017-12-01T19:08:57.266Z,52.30
2017-12-01T19:11:23.461Z,52.31
2017-12-01T19:13:49.645Z,52.29
2017-12-01T19:16:15.896Z,52.29
2017-12-01T19:18:42.114Z,52.24
2017-12-01T19:21:08.353Z,52.20
2017-12-01T19:23:34.594Z,52.17
2017-12-01T19:26:00.851Z,52.14
2017-12-01T19:28:27.039Z,52.14
2017-12-01T19:30:53.272Z,52.16
2017-12-01T19:33:19.481Z,52.14
2017-12-01T19:35:45.663Z,52.14
2017-12-01T19:38:11.902Z,52.14
2017-12-01T19:40:38.093Z,52.12
2017-12-01T19:43:04.510Z,52.11
2017-12-01T19:45:30.843Z,52.20
2017-12-01T19:47:57.073Z,52.21
2017-12-01T19:50:23.274Z,52.21
2017-12-01T19:52:49.591Z,52.23
2017-12-01T19:55:15.791Z,52.21
2017-12-01T19:57:42.224Z,52.18
2017-12-01T20:00:08.560Z,52.17
2017-12-01T20:02:34.774Z,52.20
2017-12-01T20:05:00.965Z,52.30
2017-12-01T20:07:27.216Z,52.24
2017-12-01T20:09:53.416Z,52.14
2017-12-01T20:12:19.623Z,52.09
2017-12-01T20:14:45.881Z,52.09
2017-12-01T20:17:12.073Z,52.13
2017-12-01T20:19:38.496Z,52.15
2017-12-01T20:22:04.730Z,52.23
2017-12-01T20:24:31.164Z,52.16
2017-12-01T20:26:57.598Z,52.17
2017-12-01T20:29:23.938Z,52.23
2017-12-01T20:31:50.145Z,52.15
2017-12-01T20:34:16.395Z,52.11
2017-12-01T20:36:42.612Z,52.11
2017-12-01T20:39:08.841Z,52.12
2017-12-01T20:41:35.027Z,52.14
2017-12-01T20:44:01.589Z,52.10
2017-12-01T20:46:27.781Z,52.09
2017-12-01T20:48:53.986Z,52.11
2017-12-01T20:51:20.238Z,52.04
2017-12-01T20:53:46.439Z,52.00
2017-12-01T20:56:12.641Z,51.98
2017-12-01T20:58:39.064Z,52.01
2017-12-01T21:01:05.259Z,52.05
2017-12-01T21:03:31.454Z,52.03
2017-12-01T21:05:57.794Z,52.00
2017-12-01T21:08:24.277Z,52.01
2017-12-01T21:10:50.469Z,51.97
2017-12-01T21:13:17.054Z,51.98
2017-12-01T21:15:43.255Z,52.00
2017-12-01T21:18:09.467Z,52.04
2017-12-01T21:20:35.784Z,52.10
2017-12-01T21:23:01.972Z,52.05
2017-12-01T21:25:28.181Z,52.02
2017-12-01T21:27:54.522Z,52.00
2017-12-01T21:30:20.964Z,51.99
2017-12-01T21:32:47.177Z,52.00
2017-12-01T21:35:13.488Z,51.92
2017-12-01T21:37:39.827Z,51.95
2017-12-01T21:40:06.065Z,51.88
2017-12-01T21:45:04.190Z,51.77
2017-12-01T21:47:30.657Z,51.73
2017-12-01T21:49:57.208Z,51.78
2017-12-01T21:52:23.397Z,51.81
2017-12-01T21:54:49.597Z,51.79
2017-12-01T21:57:16.127Z,51.78
2017-12-01T21:59:42.298Z,51.88
2017-12-01T22:02:08.489Z,51.84
2017-12-01T22:04:34.836Z,51.88
2017-12-01T22:07:01.060Z,51.98
2017-12-01T22:09:27.261Z,51.90
2017-12-01T22:11:53.587Z,51.76
2017-12-01T22:14:19.814Z,51.75
2017-12-01T22:16:46.041Z,51.74
2017-12-01T22:19:12.274Z,51.70
2017-12-01T22:21:38.516Z,51.77
2017-12-01T22:24:04.707Z,51.77
2017-12-01T22:26:31.016Z,51.75
2017-12-01T22:28:57.243Z,51.77
2017-12-01T22:31:23.674Z,51.67
2017-12-01T22:33:50.004Z,51.71
2017-12-01T22:36:16.210Z,51.61
2017-12-01T22:38:42.405Z,51.63
2017-12-01T22:41:08.998Z,51.74
2017-12-01T22:43:35.295Z,51.69
2017-12-01T22:46:01.488Z,51.64
2017-12-01T22:48:28.040Z,51.69
2017-12-01T22:50:54.224Z,51.76
2017-12-01T22:53:20.449Z,51.82
2017-12-01T22:55:46.684Z,51.77
2017-12-01T22:58:13.112Z,51.84
2017-12-01T23:00:39.297Z,51.79
2017-12-01T23:03:05.538Z,51.79
2017-12-01T23:05:31.717Z,51.78
2017-12-01T23:07:57.908Z,51.78
2017-12-01T23:10:24.472Z,51.79
2017-12-01T23:12:50.694Z,51.73
2017-12-01T23:15:16.873Z,51.75
2017-12-01T23:17:43.320Z,51.64
2017-12-01T23:20:09.500Z,51.58
2017-12-01T23:22:36.133Z,51.61
2017-12-01T23:25:02.452Z,51.59
2017-12-01T23:27:28.630Z,51.58
2017-12-01T23:29:55.044Z,51.56
2017-12-01T23:32:21.290Z,51.59
2017-12-01T23:34:47.474Z,51.51
2017-12-01T23:37:13.655Z,51.54
2017-12-01T23:39:40.114Z,51.53
2017-12-01T23:42:06.319Z,51.48
2017-12-01T23:44:32.522Z,51.50
2017-12-01T23:46:58.832Z,51.54
2017-12-01T23:49:25.003Z,51.59
2017-12-01T23:51:51.191Z,51.59
2017-12-01T23:54:17.660Z,51.54
2017-12-01T23:56:43.878Z,51.52
2017-12-01T23:59:10.399Z,51.53
